createdAt,value
2022-08-25T00:01:14.280Z,44.92
2022-08-25T00:06:18.816Z,44.38
2022-08-25T00:11:23.859Z,45.90
2022-08-25T00:16:27.265Z,44.38
2022-08-25T00:21:32.555Z,44.13
2022-08-25T00:26:36.053Z,44.47
2022-08-25T00:31:40.277Z,44.10
2022-08-25T00:36:45.467Z,44.40
2022-08-25T00:41:49.728Z,44.08
2022-08-25T00:46:54.512Z,44.28
2022-08-25T00:52:02.363Z,44.45
2022-08-25T00:57:07.065Z,44.40
2022-08-25T01:02:11.388Z,44.13
2022-08-25T01:07:20.500Z,44.17
2022-08-25T01:12:23.638Z,44.63
2022-08-25T01:17:28.170Z,43.97
2022-08-25T01:22:32.721Z,44.00
2022-08-25T01:27:35.640Z,44.47
2022-08-25T01:32:38.565Z,45.15
2022-08-25T01:37:43.012Z,44.35
2022-08-25T01:42:58.652Z,44.60
2022-08-25T01:48:01.986Z,45.38
2022-08-25T01:53:10.114Z,44.10
2022-08-25T01:58:12.993Z,43.83
2022-08-25T02:03:19.121Z,44.03
2022-08-25T02:08:25.190Z,44.33
2022-08-25T02:13:31.546Z,44.33
2022-08-25T02:18:35.659Z,44.20
2022-08-25T02:23:40.112Z,43.50
2022-08-25T02:28:43.328Z,44.38
2022-08-25T02:33:46.793Z,44.45
2022-08-25T02:38:51.508Z,43.97
2022-08-25T02:43:55.258Z,44.55
2022-08-25T02:48:58.527Z,44.33
2022-08-25T02:54:05.982Z,43.92
2022-08-25T02:59:09.180Z,44.60
2022-08-25T03:04:12.462Z,44.15
2022-08-25T03:09:18.064Z,44.22
2022-08-25T03:14:31.250Z,43.58
2022-08-25T03:19:34.408Z,43.83
2022-08-25T03:24:38.814Z,43.83
2022-08-25T03:29:43.168Z,43.45
2022-08-25T03:34:46.607Z,44.13
2022-08-25T03:39:51.029Z,43.88
2022-08-25T03:44:54.638Z,44.45
2022-08-25T03:49:57.635Z,43.88
2022-08-25T03:55:02.448Z,44.25
2022-08-25T04:00:07.183Z,43.38
2022-08-25T04:05:15.857Z,43.65
2022-08-25T04:10:20.506Z,43.63
2022-08-25T04:15:24.092Z,43.25
2022-08-25T04:20:32.998Z,43.85
2022-08-25T04:25:42.329Z,47.47
2022-08-25T04:30:51.837Z,47.40
2022-08-25T04:35:55.265Z,43.92
2022-08-25T04:41:00.989Z,44.35
2022-08-25T04:46:20.179Z,44.15
2022-08-25T04:51:30.960Z,44.05
2022-08-25T04:56:36.337Z,43.17
2022-08-25T05:01:40.496Z,44.03
2022-08-25T05:06:44.655Z,46.30
2022-08-25T05:11:49.452Z,43.85
2022-08-25T05:16:52.581Z,44.17
2022-08-25T05:21:58.084Z,43.95
2022-08-25T05:27:03.927Z,43.88
2022-08-25T05:32:13.976Z,44.10
2022-08-25T05:37:17.105Z,44.13
2022-08-25T05:42:22.521Z,44.63
2022-08-25T05:47:25.764Z,44.78
2022-08-25T05:52:29.332Z,43.97
2022-08-25T05:57:33.978Z,43.85
2022-08-25T06:02:46.323Z,44.90
2022-08-25T06:07:52.107Z,44.45
2022-08-25T06:12:56.905Z,44.55
2022-08-25T06:18:03.437Z,44.90
2022-08-25T06:23:06.653Z,44.20
2022-08-25T06:28:11.168Z,44.72
2022-08-25T06:33:15.324Z,45.05
2022-08-25T06:38:18.687Z,45.13
2022-08-25T06:43:24.327Z,44.65
2022-08-25T06:48:27.628Z,45.70
2022-08-25T06:53:34.632Z,44.35
2022-08-25T06:58:39.889Z,44.83
2022-08-25T07:03:43.742Z,45.10
2022-08-25T07:08:53.088Z,44.72
2022-08-25T07:13:57.604Z,44.97
2022-08-25T07:19:03.426Z,47.30
2022-08-25T07:24:08.563Z,45.20
2022-08-25T07:29:18.053Z,45.53
2022-08-25T07:34:53.779Z,44.85
2022-08-25T07:40:00.134Z,44.60
2022-08-25T07:45:06.233Z,45.22
2022-08-25T07:50:13.234Z,45.08
2022-08-25T07:55:18.056Z,45.28
2022-08-25T08:00:22.798Z,45.60
2022-08-25T08:05:28.889Z,45.45
2022-08-25T08:10:53.863Z,44.92
2022-08-25T08:16:05.404Z,45.55
2022-08-25T08:21:13.041Z,45.25
2022-08-25T08:26:36.257Z,45.70
2022-08-25T08:31:41.449Z,45.95
2022-08-25T08:36:56.815Z,45.55
2022-08-25T08:42:23.198Z,45.47
2022-08-25T08:47:38.593Z,47.28
2022-08-25T08:52:48.784Z,48.00
2022-08-25T08:57:56.624Z,45.25
2022-08-25T09:03:07.702Z,45.65
2022-08-25T09:08:20.411Z,45.00
2022-08-25T09:13:35.450Z,45.25
2022-08-25T09:18:55.909Z,45.50
2022-08-25T09:24:15.737Z,45.22
2022-08-25T09:29:25.339Z,46.72
2022-08-25T09:34:35.054Z,46.40
2022-08-25T09:39:39.069Z,45.85
2022-08-25T09:44:48.533Z,45.72
2022-08-25T09:50:01.605Z,46.20
2022-08-25T09:55:34.506Z,45.95
2022-08-25T10:00:46.130Z,45.85
2022-08-25T10:06:02.487Z,46.25
2022-08-25T10:11:12.191Z,45.53
2022-08-25T10:16:28.648Z,45.35
2022-08-25T10:21:36.093Z,46.10
2022-08-25T10:26:49.947Z,45.78
2022-08-25T10:32:05.158Z,46.20
2022-08-25T10:37:19.183Z,45.92
2022-08-25T10:42:35.011Z,45.75
2022-08-25T10:48:01.863Z,47.10
2022-08-25T10:53:20.290Z,46.35
2022-08-25T10:58:31.943Z,45.50
2022-08-25T11:03:48.442Z,46.10
2022-08-25T11:08:56.053Z,46.55
2022-08-25T11:14:06.324Z,46.83
2022-08-25T11:19:20.162Z,47.30
2022-08-25T11:24:45.882Z,46.58
2022-08-25T11:30:00.307Z,46.83
2022-08-25T11:35:06.822Z,46.50
2022-08-25T11:40:22.810Z,46.58
2022-08-25T11:45:55.646Z,46.05
2022-08-25T11:51:07.754Z,46.53
2022-08-25T11:56:33.107Z,46.92
2022-08-25T12:02:15.577Z,46.83
2022-08-25T12:07:31.425Z,46.42
2022-08-25T12:12:44.753Z,47.03
2022-08-25T12:18:15.158Z,46.35
2022-08-25T12:23:21.402Z,47.33
2022-08-25T12:28:46.196Z,45.97
2022-08-25T12:34:08.408Z,46.72
2022-08-25T12:39:24.350Z,46.53
2022-08-25T12:45:06.861Z,46.92
2022-08-25T12:50:39.174Z,46.70
2022-08-25T12:55:48.461Z,46.35
2022-08-25T13:01:32.977Z,46.78
2022-08-25T13:07:08.113Z,46.25
2022-08-25T13:12:21.152Z,46.30
2022-08-25T13:17:29.393Z,46.42
2022-08-25T13:22:37.531Z,46.63
2022-08-25T13:27:41.653Z,46.35
2022-08-25T13:32:47.230Z,46.60
2022-08-25T13:37:54.741Z,46.63
2022-08-25T13:43:09.189Z,46.78
2022-08-25T13:55:04.703Z,46.38
2022-08-25T14:01:48.530Z,46.65
2022-08-25T14:14:05.158Z,46.70
2022-08-25T14:19:19.907Z,47.30
2022-08-25T14:24:24.664Z,47.75
2022-08-25T14:29:29.534Z,47.35
2022-08-25T14:34:37.625Z,47.47
2022-08-25T14:39:42.523Z,47.80
2022-08-25T14:44:48.655Z,47.25
2022-08-25T14:49:56.139Z,47.75
2022-08-25T14:55:00.433Z,48.25
2022-08-25T15:00:07.065Z,47.85
2022-08-25T15:05:16.545Z,47.30
2022-08-25T15:10:21.664Z,47.92
2022-08-25T15:15:28.669Z,48.13
2022-08-25T15:20:32.082Z,47.75
2022-08-25T15:25:35.380Z,48.15
2022-08-25T15:30:42.091Z,48.17
2022-08-25T15:35:47.510Z,48.05
2022-08-25T15:40:53.002Z,47.95
2022-08-25T15:45:57.598Z,47.92
2022-08-25T15:51:00.960Z,48.25
2022-08-25T15:56:06.316Z,48.42
2022-08-25T16:01:15.260Z,48.28
2022-08-25T16:06:19.999Z,49.53
2022-08-25T16:11:25.434Z,48.03
2022-08-25T16:16:30.958Z,47.78
2022-08-25T16:21:42.030Z,47.60
2022-08-25T16:26:51.720Z,47.53
2022-08-25T16:31:58.278Z,48.33
2022-08-25T16:37:05.988Z,47.85
2022-08-25T16:42:09.496Z,50.15
2022-08-25T16:47:17.812Z,48.13
2022-08-25T16:52:40.938Z,48.80
2022-08-25T16:57:49.757Z,47.97
2022-08-25T17:02:59.137Z,48.65
2022-08-25T17:08:20.563Z,47.90
2022-08-25T17:13:23.511Z,48.75
2022-08-25T17:18:29.387Z,47.97
2022-08-25T17:23:33.280Z,48.35
2022-08-25T17:28:37.057Z,48.10
2022-08-25T17:33:45.203Z,47.90
2022-08-25T17:38:48.480Z,48.33
2022-08-25T17:43:52.033Z,49.38
2022-08-25T17:48:56.338Z,49.00
2022-08-25T17:53:59.493Z,48.20
2022-08-25T17:59:03.335Z,48.35
2022-08-25T18:04:16.965Z,49.25
2022-08-25T18:09:20.744Z,48.53
2022-08-25T18:14:25.620Z,47.72
2022-08-25T18:19:30.454Z,48.13
2022-08-25T18:24:35.358Z,48.33
2022-08-25T18:29:38.398Z,47.85
2022-08-25T18:34:44.926Z,47.53
2022-08-25T18:40:06.649Z,47.80
2022-08-25T18:45:12.386Z,47.53
2022-08-25T18:50:17.030Z,47.53
2022-08-25T18:55:23.854Z,48.60
2022-08-25T19:00:29.725Z,47.85
2022-08-25T19:05:38.300Z,47.70
2022-08-25T19:10:42.812Z,47.45
2022-08-25T19:15:46.902Z,47.20
2022-08-25T19:20:51.355Z,47.15
2022-08-25T19:25:55.513Z,47.72
2022-08-25T19:30:59.241Z,48.08
2022-08-25T19:36:04.725Z,47.35
2022-08-25T19:41:14.684Z,47.72
2022-08-25T19:46:19.543Z,46.97
2022-08-25T19:51:25.378Z,47.50
2022-08-25T19:56:29.612Z,47.45
2022-08-25T20:01:34.029Z,47.45
2022-08-25T20:06:39.124Z,47.53
2022-08-25T20:11:42.164Z,47.85
2022-08-25T20:16:45.251Z,47.92
2022-08-25T20:21:49.550Z,47.85
2022-08-25T20:26:52.622Z,47.15
2022-08-25T20:31:55.548Z,47.50
2022-08-25T20:37:00.836Z,47.38
2022-08-25T20:42:04.635Z,46.90
2022-08-25T20:47:10.269Z,46.33
2022-08-25T20:52:18.381Z,51.30
2022-08-25T20:57:25.782Z,46.83
2022-08-25T21:02:30.543Z,46.75
2022-08-25T21:07:35.852Z,46.47
2022-08-25T21:12:39.190Z,47.97
2022-08-25T21:17:43.347Z,46.92
2022-08-25T21:22:48.345Z,47.67
2022-08-25T21:27:54.404Z,47.00
2022-08-25T21:32:57.371Z,46.72
2022-08-25T21:38:01.631Z,46.22
2022-08-25T21:43:07.089Z,46.47
2022-08-25T21:48:11.469Z,47.22
2022-08-25T21:53:15.739Z,47.33
2022-08-25T21:58:19.954Z,46.83
2022-08-25T22:03:22.911Z,46.65
2022-08-25T22:08:30.741Z,47.05
2022-08-25T22:13:35.690Z,46.13
2022-08-25T22:18:39.070Z,46.42
2022-08-25T22:23:46.923Z,46.70
2022-08-25T22:28:49.979Z,46.53
2022-08-25T22:33:53.639Z,47.00
2022-08-25T22:38:58.661Z,47.33
2022-08-25T22:44:04.929Z,47.17
2022-08-25T22:49:08.414Z,46.58
2022-08-25T22:54:14.902Z,47.03
2022-08-25T22:59:18.169Z,47.05
2022-08-25T23:04:21.687Z,46.95
2022-08-25T23:09:27.022Z,46.25
2022-08-25T23:14:35.587Z,46.22
2022-08-25T23:19:38.609Z,46.63
2022-08-25T23:24:45.459Z,46.85
2022-08-25T23:29:50.705Z,46.05
2022-08-25T23:34:53.625Z,47.90
2022-08-25T23:39:58.618Z,46.50
2022-08-25T23:45:01.928Z,46.65
2022-08-25T23:50:05.719Z,46.42
2022-08-25T23:55:10.427Z,45.72
